Time;durP1;ratioP1;P1;durP2;ratioP2;P2;SDS_P1;SDS_P2;PMS_P1;PMS_P2;Temp;Humidity;BMP_temperature;BMP_pressure;BME280_temperature;BME280_humidity;BME280_pressure;Samples;Min_cycle;Max_cycle;Signal;HPM_P1;HPM_P2
2022/06/28 00:01:02;;;;;;;1.60;1.50;;;;;19.80;101897.00;;;;5050392;28;20199;-77
2022/06/28 00:03:30;;;;;;;1.40;1.30;;;;;19.80;101901.00;;;;5055229;28;20196;-77
2022/06/28 00:05:57;;;;;;;3.17;1.25;;;;;19.70;101895.00;;;;5049672;28;20195;-77
2022/06/28 00:08:24;;;;;;;2.33;1.40;;;;;19.70;101900.00;;;;5056975;28;20195;-77
2022/06/28 00:10:54;;;;;;;1.60;1.38;;;;;19.70;101903.00;;;;5059609;28;20195;-77
2022/06/28 00:13:23;;;;;;;2.00;1.50;;;;;19.70;101907.00;;;;5053616;28;20207;-77
2022/06/28 00:16:04;;;;;;;1.45;1.20;;;;;19.70;101903.00;;;;5049435;28;20199;-77
2022/06/28 00:18:32;;;;;;;2.15;1.30;;;;;19.60;101889.00;;;;5049799;28;20308;-77
2022/06/28 00:20:59;;;;;;;1.80;1.33;;;;;19.60;101884.00;;;;5049595;28;20204;-77
2022/06/28 00:23:26;;;;;;;1.80;1.70;;;;;19.60;101888.00;;;;5050724;28;20196;-77
2022/06/28 00:25:54;;;;;;;4.00;1.50;;;;;19.60;101892.00;;;;5051189;28;20198;-77
2022/06/28 00:28:23;;;;;;;1.75;1.48;;;;;19.60;101888.00;;;;5067255;28;20241;-77
2022/06/28 00:30:51;;;;;;;2.20;1.50;;;;;19.60;101892.00;;;;5050853;28;20203;-77
2022/06/28 00:33:18;;;;;;;2.95;2.20;;;;;19.60;101890.00;;;;5062910;28;20194;-77
2022/06/28 00:35:46;;;;;;;1.38;1.27;;;;;19.60;101884.00;;;;5065337;28;20202;-77
2022/06/28 00:38:14;;;;;;;1.65;1.52;;;;;19.60;101887.00;;;;5057401;28;20206;-77
2022/06/28 00:40:47;;;;;;;4.70;1.73;;;;;19.60;101886.00;;;;5053616;28;20341;-77
2022/06/28 00:43:15;;;;;;;1.60;1.50;;;;;19.60;101884.00;;;;5048047;28;20207;-77
2022/06/28 00:45:46;;;;;;;2.05;1.85;;;;;19.60;101888.00;;;;5061959;28;20223;-77
2022/06/28 00:48:14;;;;;;;2.08;1.83;;;;;19.60;101880.00;;;;5054550;28;20219;-77
2022/06/28 00:50:42;;;;;;;2.03;1.63;;;;;19.60;101887.00;;;;5058849;28;20195;-77
2022/06/28 00:53:11;;;;;;;3.83;1.60;;;;;19.60;101888.00;;;;5058265;28;20194;-77
2022/06/28 00:55:40;;;;;;;2.88;1.70;;;;;19.60;101895.00;;;;5057217;28;20191;-77
2022/06/28 00:58:07;;;;;;;2.40;1.58;;;;;19.50;101892.00;;;;5056717;28;20196;-77
2022/06/28 01:00:40;;;;;;;2.33;2.13;;;;;19.50;101895.00;;;;5053752;28;20195;-77
2022/06/28 01:03:09;;;;;;;1.92;1.73;;;;;19.50;101897.00;;;;5053944;28;20321;-77
2022/06/28 01:05:37;;;;;;;2.30;1.88;;;;;19.50;101900.00;;;;5053080;28;20191;-77
2022/06/28 01:08:06;;;;;;;5.97;2.10;;;;;19.50;101896.00;;;;5059250;28;20226;-77
2022/06/28 01:10:34;;;;;;;2.20;1.50;;;;;19.50;101895.00;;;;5059626;28;20196;-77
2022/06/28 01:13:02;;;;;;;6.57;1.80;;;;;19.50;101896.00;;;;5049618;28;20203;-77
2022/06/28 01:15:31;;;;;;;2.38;1.77;;;;;19.50;101895.00;;;;5049248;28;20194;-77
2022/06/28 01:18:01;;;;;;;2.10;1.70;;;;;19.40;101901.00;;;;5047102;28;20206;-77
2022/06/28 01:20:30;;;;;;;3.00;1.75;;;;;19.40;101896.00;;;;5048619;28;20658;-75
2022/06/28 01:22:58;;;;;;;3.80;2.20;;;;;19.40;101899.00;;;;5049744;28;20581;-75
2022/06/28 01:25:26;;;;;;;2.58;2.13;;;;;19.40;101896.00;;;;5051903;28;20302;-75
2022/06/28 01:27:55;;;;;;;2.05;1.85;;;;;19.40;101899.00;;;;5049535;28;20228;-76
2022/06/28 01:30:23;;;;;;;2.50;2.00;;;;;19.40;101900.00;;;;5068891;28;20194;-76
2022/06/28 01:32:51;;;;;;;2.80;2.22;;;;;19.40;101900.00;;;;5065393;28;20207;-76
2022/06/28 01:35:19;;;;;;;2.42;2.13;;;;;19.40;101903.00;;;;5053188;28;20211;-76
2022/06/28 01:37:49;;;;;;;2.78;2.25;;;;;19.40;101904.00;;;;5057248;28;20200;-76
2022/06/28 01:40:18;;;;;;;2.00;1.88;;;;;19.30;101899.00;;;;5050639;28;20744;-76
2022/06/28 01:42:46;;;;;;;4.78;2.53;;;;;19.30;101909.00;;;;5048532;28;20207;-76
2022/06/28 01:45:14;;;;;;;4.45;2.28;;;;;19.30;101906.00;;;;5048219;28;20982;-76
2022/06/28 01:47:44;;;;;;;4.57;2.35;;;;;19.30;101906.00;;;;5049791;28;20222;-76
2022/06/28 01:50:12;;;;;;;2.00;1.77;;;;;19.30;101904.00;;;;5056218;28;20206;-76
2022/06/28 01:52:41;;;;;;;3.35;2.38;;;;;19.30;101906.00;;;;5048155;28;20199;-76
2022/06/28 01:55:09;;;;;;;3.10;2.17;;;;;19.30;101903.00;;;;5050071;28;20324;-76
2022/06/28 01:57:38;;;;;;;5.05;2.47;;;;;19.20;101908.00;;;;5058528;28;20199;-76
2022/06/28 02:00:06;;;;;;;3.45;2.40;;;;;19.20;101906.00;;;;5053173;28;20191;-76
2022/06/28 02:02:34;;;;;;;3.67;2.10;;;;;19.20;101905.00;;;;5055078;28;20205;-76
2022/06/28 02:05:01;;;;;;;2.60;2.40;;;;;19.20;101911.00;;;;5064675;28;20206;-76
2022/06/28 02:07:28;;;;;;;5.00;2.40;;;;;19.20;101898.00;;;;5055712;28;20231;-75
2022/06/28 02:09:56;;;;;;;2.45;2.25;;;;;19.20;101910.00;;;;5057584;28;20324;-76
2022/06/28 02:12:23;;;;;;;2.60;2.40;;;;;19.20;101911.00;;;;5060329;28;20207;-76
2022/06/28 02:14:53;;;;;;;2.55;2.35;;;;;19.10;101916.00;;;;5049201;28;21594;-76
2022/06/28 02:17:20;;;;;;;4.25;2.58;;;;;19.10;101914.00;;;;5058898;28;20201;-76
2022/06/28 02:19:48;;;;;;;2.22;2.03;;;;;19.10;101915.00;;;;5046287;28;20211;-76
2022/06/28 02:22:16;;;;;;;2.97;2.58;;;;;19.10;101924.00;;;;5046996;28;20195;-76
2022/06/28 02:24:43;;;;;;;2.55;2.35;;;;;19.10;101920.00;;;;5047312;28;20207;-76
2022/06/28 02:27:10;;;;;;;3.70;2.47;;;;;19.10;101914.00;;;;5051423;28;20221;-76
2022/06/28 02:29:38;;;;;;;2.33;2.13;;;;;19.10;101918.00;;;;5058188;28;20229;-76
2022/06/28 02:32:07;;;;;;;3.13;2.42;;;;;19.00;101915.00;;;;5046924;28;20199;-76
2022/06/28 02:40:24;;;;;;;2.45;2.25;;;;;19.00;101923.00;;;;5047299;28;20591;-76
2022/06/28 02:42:53;;;;;;;2.22;2.03;;;;;19.00;101921.00;;;;5046946;28;20203;-76
2022/06/28 02:45:21;;;;;;;5.13;2.53;;;;;18.90;101928.00;;;;5051704;28;20195;-76
2022/06/28 02:47:50;;;;;;;2.53;2.30;;;;;18.90;101941.00;;;;5046938;28;20600;-76
2022/06/28 02:50:17;;;;;;;3.40;2.10;;;;;18.90;101944.00;;;;5053281;28;20688;-76
2022/06/28 02:52:45;;;;;;;4.28;2.40;;;;;18.90;101948.00;;;;5046853;28;20203;-76
2022/06/28 02:55:12;;;;;;;2.45;2.25;;;;;18.90;101952.00;;;;5052462;28;20227;-76
2022/06/28 02:57:40;;;;;;;3.17;2.45;;;;;18.90;101945.00;;;;5051425;28;20195;-76
2022/06/28 03:00:11;;;;;;;3.55;2.30;;;;;18.80;101953.00;;;;5057531;28;20737;-76
2022/06/28 03:02:39;;;;;;;3.42;2.30;;;;;18.80;101946.00;;;;5051938;28;20572;-76
2022/06/28 03:05:12;;;;;;;2.63;1.65;;;;;18.80;101954.00;;;;5063667;28;20674;-76
2022/06/28 03:07:39;;;;;;;2.08;1.90;;;;;18.80;101968.00;;;;5053263;28;20223;-76
2022/06/28 03:10:09;;;;;;;2.40;2.20;;;;;18.80;101969.00;;;;5047506;28;20206;-76
2022/06/28 03:12:36;;;;;;;2.67;2.42;;;;;18.80;101959.00;;;;5061938;28;20198;-76
2022/06/28 03:15:04;;;;;;;2.75;2.45;;;;;18.80;101964.00;;;;5052813;28;20195;-76
2022/06/28 03:17:31;;;;;;;2.70;2.45;;;;;18.80;101964.00;;;;5053745;28;20266;-76
2022/06/28 03:19:59;;;;;;;2.92;2.55;;;;;18.70;101973.00;;;;5054233;28;20210;-76
2022/06/28 03:22:27;;;;;;;5.20;2.53;;;;;18.70;101978.00;;;;5062471;28;20273;-76
2022/06/28 03:24:54;;;;;;;3.42;2.63;;;;;18.70;101974.00;;;;5056438;28;20214;-76
2022/06/28 03:27:22;;;;;;;7.50;3.13;;;;;18.70;101975.00;;;;5060522;28;20896;-76
2022/06/28 03:29:51;;;;;;;4.72;2.83;;;;;18.70;101984.00;;;;5059704;28;20207;-76
2022/06/28 03:32:18;;;;;;;3.30;2.80;;;;;18.70;101975.00;;;;5059690;28;20244;-76
2022/06/28 03:34:46;;;;;;;4.43;2.72;;;;;18.70;101985.00;;;;5053526;28;20234;-76
2022/06/28 03:37:13;;;;;;;4.18;2.85;;;;;18.70;101982.00;;;;5067876;28;20203;-76
2022/06/28 03:39:42;;;;;;;7.85;2.75;;;;;18.60;101982.00;;;;5053231;28;20204;-76
2022/06/28 03:42:09;;;;;;;3.17;2.88;;;;;18.60;101995.00;;;;5061275;28;20294;-76
2022/06/28 03:44:37;;;;;;;2.97;2.67;;;;;18.60;101979.00;;;;5055289;28;20206;-77
2022/06/28 03:47:04;;;;;;;2.78;2.38;;;;;18.60;101995.00;;;;5056704;28;20207;-76
2022/06/28 03:49:32;;;;;;;4.85;2.70;;;;;18.60;101984.00;;;;5051290;28;20200;-76
2022/06/28 03:51:59;;;;;;;3.58;2.95;;;;;18.60;101989.00;;;;5052141;28;20254;-76
2022/06/28 03:54:27;;;;;;;4.55;2.92;;;;;18.60;101994.00;;;;5067600;28;20222;-77
2022/06/28 03:56:57;;;;;;;4.00;2.65;;;;;18.60;101999.00;;;;5054226;28;20227;-77
2022/06/28 03:59:25;;;;;;;3.42;3.10;;;;;18.60;101998.00;;;;5049052;28;20207;-77
2022/06/28 04:01:53;;;;;;;3.25;2.83;;;;;18.60;101999.00;;;;5048844;28;20212;-77
2022/06/28 04:04:21;;;;;;;3.00;2.75;;;;;18.60;101999.00;;;;5050213;28;20203;-77
2022/06/28 04:06:49;;;;;;;3.60;3.25;;;;;18.60;101996.00;;;;5061233;28;20230;-77
2022/06/28 04:09:16;;;;;;;3.17;2.83;;;;;18.70;102004.00;;;;5052501;28;20231;-77
2022/06/28 04:11:44;;;;;;;3.45;3.00;;;;;18.70;101999.00;;;;5054764;28;20202;-77
2022/06/28 04:14:13;;;;;;;3.33;2.78;;;;;18.70;102007.00;;;;5052479;28;20203;-77
2022/06/28 04:16:41;;;;;;;3.78;3.15;;;;;18.70;102009.00;;;;5050248;28;20203;-77
2022/06/28 04:19:09;;;;;;;3.15;2.60;;;;;18.70;102000.00;;;;5050599;28;20231;-77
2022/06/28 04:21:36;;;;;;;4.85;2.72;;;;;18.70;102002.00;;;;5054740;28;20200;-77
2022/06/28 04:24:04;;;;;;;3.03;2.72;;;;;18.80;102002.00;;;;5056384;28;20198;-77
2022/06/28 04:26:32;;;;;;;3.17;2.97;;;;;18.80;102009.00;;;;5048037;28;20192;-76
2022/06/28 04:28:59;;;;;;;3.72;3.00;;;;;18.80;102000.00;;;;5054234;28;20230;-76
2022/06/28 04:31:27;;;;;;;3.30;2.47;;;;;18.80;102000.00;;;;5057511;28;20584;-76
2022/06/28 04:33:55;;;;;;;4.35;2.92;;;;;18.90;101996.00;;;;5058746;28;20192;-76
2022/06/28 04:36:23;;;;;;;3.75;2.65;;;;;18.90;102008.00;;;;5058323;28;20211;-77
2022/06/28 04:38:50;;;;;;;7.07;2.90;;;;;18.90;102008.00;;;;5057584;28;20199;-76
2022/06/28 04:41:19;;;;;;;4.32;3.03;;;;;19.00;102004.00;;;;5058431;28;20642;-77
2022/06/28 04:43:46;;;;;;;3.60;2.90;;;;;19.00;102007.00;;;;5050486;28;20223;-76
2022/06/28 04:46:14;;;;;;;4.95;3.20;;;;;19.10;102008.00;;;;5057516;28;20203;-76
2022/06/28 04:48:42;;;;;;;3.45;2.88;;;;;19.10;102011.00;;;;5048184;28;20227;-76
2022/06/28 04:51:13;;;;;;;3.47;2.33;;;;;19.10;102015.00;;;;5056657;28;20210;-76
2022/06/28 04:53:41;;;;;;;2.80;2.60;;;;;19.20;102017.00;;;;5055418;28;20299;-76
2022/06/28 04:56:08;;;;;;;5.05;2.58;;;;;19.20;102012.00;;;;5063560;28;20207;-77
2022/06/28 04:58:36;;;;;;;3.03;2.28;;;;;19.30;102015.00;;;;5051518;28;20209;-77
2022/06/28 05:01:04;;;;;;;3.58;2.08;;;;;19.40;102018.00;;;;5056139;28;20732;-77
2022/06/28 05:03:31;;;;;;;3.22;2.05;;;;;19.40;102007.00;;;;5069782;28;20195;-77
2022/06/28 05:06:00;;;;;;;3.30;1.88;;;;;19.50;102017.00;;;;5068936;28;20569;-77
2022/06/28 05:08:27;;;;;;;1.70;1.58;;;;;19.50;102016.00;;;;5067019;28;20219;-77
2022/06/28 05:10:55;;;;;;;1.75;1.60;;;;;19.60;102014.00;;;;5050353;28;20592;-77
2022/06/28 05:13:22;;;;;;;2.13;1.63;;;;;19.70;102021.00;;;;5060297;28;20202;-77
2022/06/28 05:15:49;;;;;;;3.50;1.38;;;;;19.70;102011.00;;;;5058852;28;20211;-77
2022/06/28 05:18:16;;;;;;;7.40;1.42;;;;;19.80;102007.00;;;;5057009;28;20203;-77
2022/06/28 05:20:44;;;;;;;3.42;1.40;;;;;19.80;102011.00;;;;5052781;28;20760;-77
2022/06/28 05:23:12;;;;;;;4.65;1.65;;;;;19.90;102012.00;;;;5060301;28;20202;-76
2022/06/28 05:25:39;;;;;;;3.33;1.63;;;;;20.00;102014.00;;;;5045325;28;20210;-77
2022/06/28 05:28:07;;;;;;;6.55;1.58;;;;;20.00;102013.00;;;;5049505;28;20230;-78
2022/06/28 05:30:34;;;;;;;2.58;1.52;;;;;20.10;102013.00;;;;5050049;28;20195;-77
2022/06/28 05:33:03;;;;;;;3.00;1.45;;;;;20.10;102011.00;;;;5051133;28;20191;-77
2022/06/28 05:35:31;;;;;;;3.13;1.70;;;;;20.20;102011.00;;;;5048404;28;20204;-77
2022/06/28 05:38:00;;;;;;;5.75;1.20;;;;;20.30;102005.00;;;;5046462;28;20214;-77
2022/06/28 05:40:28;;;;;;;2.35;1.10;;;;;20.30;102006.00;;;;5047448;28;20199;-77
2022/06/28 05:42:56;;;;;;;1.80;1.10;;;;;20.40;102009.00;;;;5053492;28;20667;-79
2022/06/28 05:45:23;;;;;;;5.28;1.55;;;;;20.50;102000.00;;;;5061955;28;20263;-78
2022/06/28 05:47:51;;;;;;;4.03;1.75;;;;;20.60;102008.00;;;;5062283;28;20202;-76
2022/06/28 05:50:19;;;;;;;3.45;1.55;;;;;20.60;102001.00;;;;5054870;28;20283;-76
2022/06/28 05:52:47;;;;;;;6.05;1.40;;;;;20.70;102004.00;;;;5047065;28;20208;-76
2022/06/28 05:55:14;;;;;;;3.22;1.27;;;;;20.80;101997.00;;;;5048132;28;20721;-76
2022/06/28 05:57:44;;;;;;;1.88;1.40;;;;;20.90;102002.00;;;;5048501;28;20294;-76
2022/06/28 06:00:13;;;;;;;4.22;1.27;;;;;20.90;101999.00;;;;5048550;28;20738;-77
2022/06/28 06:02:40;;;;;;;5.38;1.35;;;;;21.00;101995.00;;;;5059611;28;20200;-76
2022/06/28 06:05:08;;;;;;;2.58;1.58;;;;;21.10;102000.00;;;;5054584;28;20292;-76
2022/06/28 06:07:36;;;;;;;4.32;1.42;;;;;21.20;102001.00;;;;5048801;28;20227;-76
2022/06/28 06:10:03;;;;;;;3.58;1.50;;;;;21.30;101999.00;;;;5047731;28;20231;-76
2022/06/28 06:12:31;;;;;;;4.35;1.48;;;;;21.30;101998.00;;;;5048336;28;20204;-76
2022/06/28 06:14:59;;;;;;;4.20;1.23;;;;;21.40;102005.00;;;;5047704;28;20199;-76
2022/06/28 06:17:27;;;;;;;10.00;2.45;;;;;21.50;102009.00;;;;5048420;28;20207;-76
2022/06/28 06:19:54;;;;;;;5.00;1.83;;;;;21.50;102014.00;;;;5047093;28;20246;-77
2022/06/28 06:22:21;;;;;;;5.13;1.30;;;;;21.60;102015.00;;;;5048437;28;20192;-77
2022/06/28 06:24:49;;;;;;;5.50;2.05;;;;;21.70;102017.00;;;;5048312;28;20203;-76
2022/06/28 06:27:16;;;;;;;5.15;1.17;;;;;21.70;102018.00;;;;5048336;28;20220;-77
2022/06/28 06:29:43;;;;;;;2.85;1.38;;;;;21.80;102020.00;;;;5047963;28;20234;-77
2022/06/28 06:32:12;;;;;;;4.93;1.38;;;;;21.90;102030.00;;;;5047900;28;20203;-77
2022/06/28 06:34:39;;;;;;;5.18;1.50;;;;;22.00;102023.00;;;;5047185;28;20192;-77
2022/06/28 06:37:07;;;;;;;3.65;0.95;;;;;22.00;102025.00;;;;5048332;28;20210;-77
2022/06/28 06:39:34;;;;;;;3.67;0.90;;;;;22.10;102031.00;;;;5048724;28;20195;-77
2022/06/28 06:42:02;;;;;;;1.70;0.80;;;;;22.20;102029.00;;;;5047648;28;20585;-77
2022/06/28 06:44:29;;;;;;;4.25;1.67;;;;;22.30;102029.00;;;;5047769;28;20200;-77
2022/06/28 06:46:57;;;;;;;6.60;2.13;;;;;22.40;102027.00;;;;5047958;28;20199;-77
2022/06/28 06:49:26;;;;;;;4.90;1.50;;;;;22.40;102032.00;;;;5051214;28;20684;-77
2022/06/28 06:51:53;;;;;;;5.72;2.20;;;;;22.50;102028.00;;;;5051755;28;20689;-77
2022/06/28 06:54:20;;;;;;;6.20;1.92;;;;;22.60;102029.00;;;;5051593;28;20261;-77
2022/06/28 06:56:48;;;;;;;3.15;1.10;;;;;22.70;102029.00;;;;5051025;28;20207;-77
2022/06/28 06:59:16;;;;;;;4.75;1.25;;;;;22.80;102030.00;;;;5051626;28;20207;-77
2022/06/28 07:01:44;;;;;;;5.00;1.73;;;;;22.90;102035.00;;;;5051604;28;20187;-77
2022/06/28 07:04:11;;;;;;;4.03;1.98;;;;;23.00;102035.00;;;;5051453;28;20603;-77
2022/06/28 07:06:40;;;;;;;5.65;1.70;;;;;23.00;102042.00;;;;5051801;28;20208;-77
2022/06/28 07:09:07;;;;;;;9.52;1.70;;;;;23.10;102044.00;;;;5050305;28;20233;-77
2022/06/28 07:11:35;;;;;;;7.45;1.80;;;;;23.20;102049.00;;;;5051932;28;20211;-77
2022/06/28 07:14:03;;;;;;;5.47;1.90;;;;;23.20;102035.00;;;;5070272;28;20195;-77
2022/06/28 07:16:30;;;;;;;4.88;1.55;;;;;23.30;102044.00;;;;5071532;28;20645;-77
2022/06/28 07:18:58;;;;;;;4.82;1.45;;;;;23.40;102048.00;;;;5066863;28;20584;-77
2022/06/28 07:21:25;;;;;;;4.78;1.45;;;;;23.40;102047.00;;;;5051612;28;20200;-77
2022/06/28 07:23:54;;;;;;;4.68;1.48;;;;;23.50;102051.00;;;;5051187;28;20570;-77
2022/06/28 07:26:21;;;;;;;4.43;1.73;;;;;23.60;102050.00;;;;5052167;28;20594;-77
2022/06/28 07:28:48;;;;;;;5.45;1.55;;;;;23.70;102056.00;;;;5060710;28;20226;-77
2022/06/28 07:31:16;;;;;;;4.53;1.50;;;;;23.80;102054.00;;;;5070849;28;20210;-77
2022/06/28 07:33:43;;;;;;;6.40;1.45;;;;;23.80;102049.00;;;;5071177;28;20210;-77
2022/06/28 07:36:11;;;;;;;6.32;1.40;;;;;23.90;102050.00;;;;5069796;28;20573;-77
2022/06/28 07:38:39;;;;;;;7.22;1.55;;;;;24.00;102048.00;;;;5071543;28;20306;-77
2022/06/28 07:41:08;;;;;;;5.43;1.08;;;;;24.10;102046.00;;;;5070464;28;20264;-77
2022/06/28 07:43:35;;;;;;;6.68;1.50;;;;;24.20;102047.00;;;;5055933;28;20207;-77
2022/06/28 07:46:02;;;;;;;3.97;1.13;;;;;24.30;102040.00;;;;5070313;28;20201;-78
2022/06/28 07:48:29;;;;;;;4.28;1.05;;;;;24.30;102034.00;;;;5070778;28;20199;-77
2022/06/28 07:53:42;;;;;;;3.92;1.08;;;;;24.50;102046.00;;;;5070196;28;20280;-78
2022/06/28 07:56:10;;;;;;;3.05;0.70;;;;;24.50;102045.00;;;;5070367;28;20210;-77
2022/06/28 07:58:39;;;;;;;3.53;1.25;;;;;24.60;102042.00;;;;5061752;28;21111;-77
2022/06/28 08:01:07;;;;;;;11.10;1.38;;;;;24.70;102046.00;;;;5050060;28;20218;-77
2022/06/28 08:03:34;;;;;;;3.90;1.17;;;;;24.80;102042.00;;;;5050390;28;20196;-77
2022/06/28 08:06:01;;;;;;;4.28;0.85;;;;;24.90;102034.00;;;;5049909;28;20195;-78
2022/06/28 08:08:29;;;;;;;9.23;1.08;;;;;25.00;102036.00;;;;5056211;28;20190;-77
2022/06/28 08:10:56;;;;;;;2.67;0.80;;;;;25.10;102032.00;;;;5070073;28;20202;-77
2022/06/28 08:13:25;;;;;;;3.60;0.80;;;;;25.20;102037.00;;;;5062882;28;20200;-78
2022/06/28 08:15:52;;;;;;;2.15;0.70;;;;;25.30;102032.00;;;;5049513;28;20206;-78
2022/06/28 08:18:20;;;;;;;3.67;0.88;;;;;25.40;102034.00;;;;5049908;28;20207;-78
2022/06/28 08:20:47;;;;;;;5.45;0.70;;;;;25.50;102038.00;;;;5049526;28;20218;-77
2022/06/28 08:23:15;;;;;;;4.25;0.73;;;;;25.50;102043.00;;;;5049763;28;20204;-77
2022/06/28 08:25:43;;;;;;;2.58;0.80;;;;;25.60;102031.00;;;;5049840;28;20252;-77
2022/06/28 08:28:10;;;;;;;3.92;0.90;;;;;25.70;102025.00;;;;5051483;28;20280;-77
2022/06/28 08:30:39;;;;;;;4.15;0.68;;;;;25.70;102022.00;;;;5069461;28;20265;-77
2022/06/28 08:33:07;;;;;;;2.90;0.90;;;;;25.80;102032.00;;;;5066013;28;20210;-77
2022/06/28 08:35:35;;;;;;;6.65;0.70;;;;;25.80;102037.00;;;;5049784;28;20677;-77
2022/06/28 08:38:04;;;;;;;2.88;0.80;;;;;25.80;102036.00;;;;5066736;28;20579;-77
2022/06/28 08:40:32;;;;;;;6.28;1.10;;;;;25.90;102033.00;;;;5069779;28;20199;-77
2022/06/28 08:43:01;;;;;;;3.22;0.60;;;;;25.90;102030.00;;;;5069860;28;20195;-77
2022/06/28 08:45:28;;;;;;;3.13;0.70;;;;;26.00;102027.00;;;;5069622;28;20238;-77
2022/06/28 08:48:00;;;;;;;2.95;0.73;;;;;26.10;102028.00;;;;5069422;28;20268;-77
2022/06/28 08:50:33;;;;;;;3.15;0.80;;;;;26.10;102025.00;;;;5063493;28;20231;-76
2022/06/28 08:53:02;;;;;;;2.00;0.60;;;;;26.20;102024.00;;;;5052206;28;20187;-77
2022/06/28 08:55:31;;;;;;;2.72;0.77;;;;;26.30;102035.00;;;;5049466;28;20714;-77
2022/06/28 08:58:00;;;;;;;1.33;0.50;;;;;26.30;102026.00;;;;5049310;28;20235;-78
2022/06/28 09:00:27;;;;;;;3.83;0.65;;;;;26.40;102027.00;;;;5049706;28;20238;-77
2022/06/28 09:02:58;;;;;;;3.83;0.63;;;;;26.50;102020.00;;;;5049345;28;20238;-77
2022/06/28 09:05:27;;;;;;;2.25;0.77;;;;;26.60;102015.00;;;;5048276;28;20191;-77
2022/06/28 09:07:55;;;;;;;1.77;0.57;;;;;26.70;102021.00;;;;5057464;28;20206;-76
2022/06/28 09:10:23;;;;;;;14.27;0.93;;;;;26.70;102011.00;;;;5068940;28;20226;-77
2022/06/28 09:12:55;;;;;;;6.30;1.45;;;;;26.80;102020.00;;;;5067797;28;20203;-77
2022/06/28 09:15:23;;;;;;;2.40;0.82;;;;;26.90;102012.00;;;;5068362;28;20226;-77
2022/06/28 09:17:56;;;;;;;2.75;0.50;;;;;27.00;102009.00;;;;5068446;28;20756;-76
2022/06/28 09:20:37;;;;;;;3.13;0.40;;;;;26.90;102024.00;;;;5068023;28;20214;-77
2022/06/28 09:23:05;;;;;;;1.67;0.70;;;;;27.00;102014.00;;;;5067796;28;20199;-77
2022/06/28 09:25:33;;;;;;;2.65;0.45;;;;;27.10;102011.00;;;;5053404;28;20566;-76
2022/06/28 09:28:02;;;;;;;2.78;0.70;;;;;27.10;102011.00;;;;5048581;28;20873;-76
2022/06/28 09:30:31;;;;;;;3.00;0.52;;;;;27.20;102017.00;;;;5056093;28;20223;-77
2022/06/28 09:33:04;;;;;;;3.28;0.82;;;;;27.20;102010.00;;;;5047762;28;20210;-76
2022/06/28 09:35:32;;;;;;;2.22;0.65;;;;;27.30;102007.00;;;;5047985;28;20210;-76
2022/06/28 09:38:00;;;;;;;1.75;0.47;;;;;27.30;102013.00;;;;5047855;28;20207;-76
2022/06/28 09:40:31;;;;;;;1.05;0.57;;;;;27.40;102005.00;;;;5048511;28;20215;-77
2022/06/28 09:43:09;;;;;;;4.05;0.98;;;;;27.40;102002.00;;;;5066113;28;20261;-77
2022/06/28 09:45:37;;;;;;;2.78;0.60;;;;;27.50;102006.00;;;;5067609;28;20191;-77
2022/06/28 09:48:07;;;;;;;2.08;0.52;;;;;27.60;101999.00;;;;5047861;28;20204;-77
2022/06/28 09:50:36;;;;;;;1.50;0.75;;;;;27.70;102000.00;;;;5048151;28;20230;-77
2022/06/28 09:53:05;;;;;;;2.40;0.50;;;;;27.70;102010.00;;;;5047651;28;20295;-77
2022/06/28 09:55:34;;;;;;;4.00;1.17;;;;;27.80;102002.00;;;;5047551;28;20238;-77
2022/06/28 09:58:02;;;;;;;3.22;1.02;;;;;27.90;101998.00;;;;5049736;28;20216;-77
2022/06/28 10:00:34;;;;;;;0.93;0.35;;;;;27.90;101991.00;;;;5056826;28;20207;-76
2022/06/28 10:03:01;;;;;;;2.28;0.50;;;;;27.90;101995.00;;;;5047297;28;20204;-77
2022/06/28 10:05:30;;;;;;;1.23;0.52;;;;;27.90;101990.00;;;;5047277;28;20222;-77
2022/06/28 10:07:58;;;;;;;2.22;0.28;;;;;28.00;101985.00;;;;5049388;28;20223;-77
2022/06/28 10:10:25;;;;;;;2.08;0.45;;;;;28.10;101987.00;;;;5067716;28;20696;-77
2022/06/28 10:15:41;;;;;;;4.72;0.50;;;;;28.10;101988.00;;;;5064107;28;20202;-77
2022/06/28 10:18:13;;;;;;;3.53;0.60;;;;;28.20;101984.00;;;;5067219;28;20226;-77
2022/06/28 10:20:46;;;;;;;2.25;0.70;;;;;28.20;101981.00;;;;5067686;28;20194;-76
2022/06/28 10:23:28;;;;;;;3.40;0.50;;;;;28.10;101984.00;;;;5069161;28;20203;-77
2022/06/28 10:26:11;;;;;;;2.83;0.88;;;;;28.20;101975.00;;;;5071563;28;20210;-77
2022/06/28 10:28:41;;;;;;;2.40;1.20;;;;;28.30;101978.00;;;;5066110;28;20238;-77
2022/06/28 10:31:38;;;;;;;2.67;0.50;;;;;28.20;101977.00;;;;5051304;28;21055;-77
2022/06/28 10:34:08;;;;;;;2.92;0.55;;;;;28.40;101971.00;;;;5051856;28;20215;-76
2022/06/28 10:36:49;;;;;;;0.88;0.70;;;;;28.30;101974.00;;;;5051964;28;20747;-77
2022/06/28 10:39:19;;;;;;;1.27;0.43;;;;;28.40;101977.00;;;;5051048;28;20195;-77
2022/06/28 10:41:49;;;;;;;2.38;0.65;;;;;28.40;101967.00;;;;5051947;28;20218;-77
2022/06/28 10:44:18;;;;;;;2.60;0.35;;;;;28.50;101964.00;;;;5051141;28;20204;-77
2022/06/28 10:46:51;;;;;;;1.88;0.57;;;;;28.50;101966.00;;;;5051595;28;20691;-77
2022/06/28 10:49:20;;;;;;;0.88;0.45;;;;;28.50;101964.00;;;;5051822;28;20207;-76
2022/06/28 10:52:16;;;;;;;1.60;0.50;;;;;28.40;101969.00;;;;5051649;28;20220;-77
2022/06/28 10:55:22;;;;;;;2.00;0.85;;;;;28.40;101960.00;;;;5034381;28;20245;-77
2022/06/28 10:58:05;;;;;;;1.60;0.85;;;;;28.50;101961.00;;;;5070486;28;20206;-77
2022/06/28 11:00:35;;;;;;;0.70;0.30;;;;;28.50;101969.00;;;;5071209;28;20195;-77
2022/06/28 11:03:04;;;;;;;2.22;0.50;;;;;28.50;101964.00;;;;5070734;28;20221;-77
2022/06/28 11:05:53;;;;;;;2.38;0.60;;;;;28.30;101969.00;;;;5071451;28;20365;-77
2022/06/28 11:08:54;;;;;;;3.65;0.57;;;;;28.30;101955.00;;;;5050677;28;20203;-77
2022/06/28 11:11:22;;;;;;;2.70;0.60;;;;;28.50;101954.00;;;;5050707;28;20238;-77
2022/06/28 11:13:49;;;;;;;2.72;0.77;;;;;28.50;101954.00;;;;5051078;28;20204;-77
2022/06/28 11:16:47;;;;;;;2.15;0.65;;;;;28.30;101951.00;;;;5050845;28;20286;-77
2022/06/28 11:19:15;;;;;;;1.52;0.50;;;;;28.40;101945.00;;;;5050500;28;20207;-77
2022/06/28 11:21:44;;;;;;;2.15;0.70;;;;;28.40;101938.00;;;;5051134;28;20214;-76
2022/06/28 11:24:13;;;;;;;2.17;0.60;;;;;28.40;101934.00;;;;5061795;28;20198;-77
2022/06/28 11:29:26;;;;;;;7.10;1.13;;;;;28.40;101938.00;;;;5059052;28;20312;-76
2022/06/28 11:31:53;;;;;;;2.05;0.40;;;;;28.40;101931.00;;;;5050287;28;20234;-76
2022/06/28 11:34:25;;;;;;;0.95;0.55;;;;;28.40;101932.00;;;;5049151;28;20203;-77
2022/06/28 11:36:56;;;;;;;2.25;0.68;;;;;28.40;101934.00;;;;5050597;28;20240;-76
2022/06/28 11:39:25;;;;;;;1.92;0.45;;;;;28.40;101924.00;;;;5050964;28;20218;-77
2022/06/28 11:41:54;;;;;;;2.08;0.60;;;;;28.50;101922.00;;;;5067650;28;20210;-77
2022/06/28 11:44:22;;;;;;;1.25;0.50;;;;;28.50;101916.00;;;;5069950;28;20195;-76
2022/06/28 11:46:51;;;;;;;1.83;0.80;;;;;28.50;101916.00;;;;5070293;28;20195;-76
2022/06/28 11:49:27;;;;;;;3.55;0.75;;;;;28.50;101915.00;;;;5051365;28;20196;-77
2022/06/28 11:51:54;;;;;;;1.67;0.60;;;;;28.60;101926.00;;;;5050201;28;20212;-77
2022/06/28 11:54:26;;;;;;;2.13;0.50;;;;;28.60;101928.00;;;;5049782;28;20223;-76
2022/06/28 11:56:54;;;;;;;2.15;0.40;;;;;28.60;101918.00;;;;5051507;28;20195;-77
2022/06/28 11:59:42;;;;;;;2.28;0.70;;;;;28.60;101919.00;;;;5052575;28;20191;-77
2022/06/28 12:02:09;;;;;;;3.90;1.38;;;;;28.60;101912.00;;;;5069731;28;20210;-76
2022/06/28 12:04:42;;;;;;;1.45;0.88;;;;;28.60;101920.00;;;;5068228;28;20199;-76
2022/06/28 12:07:09;;;;;;;2.90;0.93;;;;;28.60;101921.00;;;;5070115;28;20199;-76
2022/06/28 12:09:46;;;;;;;2.90;0.80;;;;;28.50;101914.00;;;;5054052;28;20196;-76
2022/06/28 12:12:13;;;;;;;2.08;0.50;;;;;28.60;101920.00;;;;5049753;28;20306;-76
2022/06/28 12:14:41;;;;;;;2.42;1.10;;;;;28.60;101913.00;;;;5050231;28;20207;-76
2022/06/28 12:17:08;;;;;;;3.35;0.60;;;;;28.60;101915.00;;;;5049396;28;20235;-76
2022/06/28 12:19:38;;;;;;;2.25;0.68;;;;;28.60;101914.00;;;;5049461;28;20200;-77
2022/06/28 12:22:08;;;;;;;2.13;0.77;;;;;28.70;101911.00;;;;5052256;28;20197;-77
2022/06/28 12:24:41;;;;;;;3.30;0.95;;;;;28.70;101912.00;;;;5059165;28;20187;-77
2022/06/28 12:27:10;;;;;;;3.00;0.88;;;;;28.80;101917.00;;;;5056011;28;20198;-77
2022/06/28 12:29:37;;;;;;;2.63;0.90;;;;;28.80;101920.00;;;;5053232;28;20223;-76
2022/06/28 12:32:06;;;;;;;2.17;0.50;;;;;28.80;101914.00;;;;5046518;28;20199;-77